sensor_id;sensor_type;location;lat;lon;timestamp;P1;durP1;ratioP1;P2;durP2;ratioP2
52866;SDS011;38739;53.324;6.862;2024-03-23T00:56:16;35.10;;;7.03;;
52866;SDS011;38739;53.324;6.862;2024-03-23T00:58:42;35.55;;;7.50;;
52866;SDS011;38739;53.324;6.862;2024-03-23T01:01:08;40.55;;;7.60;;
52866;SDS011;38739;53.324;6.862;2024-03-23T01:03:33;33.03;;;7.03;;
52866;SDS011;38739;53.324;6.862;2024-03-23T01:06:02;42.92;;;7.63;;
52866;SDS011;38739;53.324;6.862;2024-03-23T01:08:31;43.13;;;8.25;;
52866;SDS011;38739;53.324;6.862;2024-03-23T01:11:00;31.33;;;6.25;;
52866;SDS011;38739;53.324;6.862;2024-03-23T01:13:27;35.58;;;7.60;;
52866;SDS011;38739;53.324;6.862;2024-03-23T01:15:53;41.88;;;7.60;;
52866;SDS011;38739;53.324;6.862;2024-03-23T01:18:21;41.88;;;7.82;;
52866;SDS011;38739;53.324;6.862;2024-03-23T01:20:48;41.60;;;7.38;;
52866;SDS011;38739;53.324;6.862;2024-03-23T01:23:14;40.45;;;7.57;;
52866;SDS011;38739;53.324;6.862;2024-03-23T01:25:40;36.35;;;7.25;;
52866;SDS011;38739;53.324;6.862;2024-03-23T01:28:06;39.67;;;7.70;;
52866;SDS011;38739;53.324;6.862;2024-03-23T01:30:32;39.30;;;7.00;;
52866;SDS011;38739;53.324;6.862;2024-03-23T01:33:01;35.88;;;7.25;;
52866;SDS011;38739;53.324;6.862;2024-03-23T01:35:30;34.55;;;7.75;;
52866;SDS011;38739;53.324;6.862;2024-03-23T01:37:58;34.72;;;7.40;;
52866;SDS011;38739;53.324;6.862;2024-03-23T01:40:24;37.03;;;7.10;;
52866;SDS011;38739;53.324;6.862;2024-03-23T01:43:00;37.53;;;7.03;;
52866;SDS011;38739;53.324;6.862;2024-03-23T01:45:28;47.28;;;7.82;;
52866;SDS011;38739;53.324;6.862;2024-03-23T01:47:55;37.67;;;7.00;;
52866;SDS011;38739;53.324;6.862;2024-03-23T01:50:21;39.03;;;6.90;;
52866;SDS011;38739;53.324;6.862;2024-03-23T01:52:48;42.95;;;7.55;;
52866;SDS011;38739;53.324;6.862;2024-03-23T01:55:14;34.17;;;7.22;;
52866;SDS011;38739;53.324;6.862;2024-03-23T01:57:40;44.90;;;7.68;;
52866;SDS011;38739;53.324;6.862;2024-03-23T02:00:05;41.78;;;7.18;;
52866;SDS011;38739;53.324;6.862;2024-03-23T02:02:32;42.55;;;7.60;;
52866;SDS011;38739;53.324;6.862;2024-03-23T02:04:57;37.35;;;7.05;;
52866;SDS011;38739;53.324;6.862;2024-03-23T02:07:23;34.50;;;7.25;;
52866;SDS011;38739;53.324;6.862;2024-03-23T02:09:50;29.15;;;6.93;;
52866;SDS011;38739;53.324;6.862;2024-03-23T02:12:17;38.08;;;7.13;;
52866;SDS011;38739;53.324;6.862;2024-03-23T02:14:43;39.97;;;7.63;;
52866;SDS011;38739;53.324;6.862;2024-03-23T02:17:12;39.80;;;8.25;;
52866;SDS011;38739;53.324;6.862;2024-03-23T02:19:38;32.00;;;6.93;;
52866;SDS011;38739;53.324;6.862;2024-03-23T02:22:04;44.38;;;7.38;;
52866;SDS011;38739;53.324;6.862;2024-03-23T02:24:29;38.38;;;7.57;;
52866;SDS011;38739;53.324;6.862;2024-03-23T02:26:55;35.60;;;7.32;;
52866;SDS011;38739;53.324;6.862;2024-03-23T02:29:21;32.92;;;7.28;;
52866;SDS011;38739;53.324;6.862;2024-03-23T02:31:46;31.58;;;7.10;;
52866;SDS011;38739;53.324;6.862;2024-03-23T02:34:12;39.30;;;7.05;;
52866;SDS011;38739;53.324;6.862;2024-03-23T02:36:37;34.17;;;6.88;;
52866;SDS011;38739;53.324;6.862;2024-03-23T02:39:03;35.00;;;6.93;;
52866;SDS011;38739;53.324;6.862;2024-03-23T02:41:29;38.20;;;6.60;;
52866;SDS011;38739;53.324;6.862;2024-03-23T02:43:54;33.60;;;6.60;;
52866;SDS011;38739;53.324;6.862;2024-03-23T02:46:20;31.35;;;6.97;;
52866;SDS011;38739;53.324;6.862;2024-03-23T02:48:48;35.15;;;7.30;;
52866;SDS011;38739;53.324;6.862;2024-03-23T02:51:14;35.53;;;6.50;;
52866;SDS011;38739;53.324;6.862;2024-03-23T02:53:39;31.92;;;6.88;;
52866;SDS011;38739;53.324;6.862;2024-03-23T02:56:06;32.03;;;6.65;;
52866;SDS011;38739;53.324;6.862;2024-03-23T02:58:32;34.67;;;7.00;;
52866;SDS011;38739;53.324;6.862;2024-03-23T03:00:58;31.10;;;7.53;;
52866;SDS011;38739;53.324;6.862;2024-03-23T03:03:24;38.67;;;6.53;;
52866;SDS011;38739;53.324;6.862;2024-03-23T03:05:58;36.42;;;6.80;;
52866;SDS011;38739;53.324;6.862;2024-03-23T03:08:24;31.77;;;6.70;;
52866;SDS011;38739;53.324;6.862;2024-03-23T03:10:50;28.50;;;6.45;;
52866;SDS011;38739;53.324;6.862;2024-03-23T03:13:16;37.20;;;6.50;;
52866;SDS011;38739;53.324;6.862;2024-03-23T03:15:43;28.75;;;6.80;;
52866;SDS011;38739;53.324;6.862;2024-03-23T03:18:09;30.55;;;6.45;;
52866;SDS011;38739;53.324;6.862;2024-03-23T03:20:37;36.08;;;6.20;;
52866;SDS011;38739;53.324;6.862;2024-03-23T03:23:04;27.70;;;5.72;;
52866;SDS011;38739;53.324;6.862;2024-03-23T03:25:30;30.73;;;7.07;;
52866;SDS011;38739;53.324;6.862;2024-03-23T03:27:58;32.97;;;5.82;;
52866;SDS011;38739;53.324;6.862;2024-03-23T03:30:24;32.70;;;5.43;;
52866;SDS011;38739;53.324;6.862;2024-03-23T03:32:50;30.80;;;5.28;;
52866;SDS011;38739;53.324;6.862;2024-03-23T03:35:20;34.25;;;5.90;;
52866;SDS011;38739;53.324;6.862;2024-03-23T03:37:45;28.42;;;5.78;;
52866;SDS011;38739;53.324;6.862;2024-03-23T03:40:11;36.85;;;5.38;;
52866;SDS011;38739;53.324;6.862;2024-03-23T03:42:40;29.10;;;5.43;;
52866;SDS011;38739;53.324;6.862;2024-03-23T03:45:06;26.85;;;5.13;;
52866;SDS011;38739;53.324;6.862;2024-03-23T03:47:32;28.05;;;5.53;;
52866;SDS011;38739;53.324;6.862;2024-03-23T03:49:58;25.65;;;4.93;;
52866;SDS011;38739;53.324;6.862;2024-03-23T03:52:23;28.38;;;5.00;;
52866;SDS011;38739;53.324;6.862;2024-03-23T03:54:49;25.85;;;5.10;;
52866;SDS011;38739;53.324;6.862;2024-03-23T03:57:14;24.52;;;5.07;;
52866;SDS011;38739;53.324;6.862;2024-03-23T03:59:40;24.52;;;4.50;;
52866;SDS011;38739;53.324;6.862;2024-03-23T04:02:06;24.00;;;4.20;;
52866;SDS011;38739;53.324;6.862;2024-03-23T04:04:31;23.80;;;4.53;;
52866;SDS011;38739;53.324;6.862;2024-03-23T04:07:01;26.25;;;5.07;;
52866;SDS011;38739;53.324;6.862;2024-03-23T04:09:27;22.73;;;4.72;;
52866;SDS011;38739;53.324;6.862;2024-03-23T04:11:53;22.42;;;4.25;;
52866;SDS011;38739;53.324;6.862;2024-03-23T04:14:18;24.40;;;4.57;;
52866;SDS011;38739;53.324;6.862;2024-03-23T04:16:44;25.65;;;4.03;;
52866;SDS011;38739;53.324;6.862;2024-03-23T04:19:10;23.67;;;4.70;;
52866;SDS011;38739;53.324;6.862;2024-03-23T04:21:36;17.90;;;4.22;;
52866;SDS011;38739;53.324;6.862;2024-03-23T04:24:03;29.50;;;4.82;;
52866;SDS011;38739;53.324;6.862;2024-03-23T04:26:29;28.25;;;4.70;;
52866;SDS011;38739;53.324;6.862;2024-03-23T04:28:55;22.02;;;4.53;;
52866;SDS011;38739;53.324;6.862;2024-03-23T04:31:20;29.25;;;4.90;;
52866;SDS011;38739;53.324;6.862;2024-03-23T04:33:46;24.00;;;4.60;;
52866;SDS011;38739;53.324;6.862;2024-03-23T04:36:12;26.02;;;5.03;;
52866;SDS011;38739;53.324;6.862;2024-03-23T04:38:38;24.42;;;4.40;;
52866;SDS011;38739;53.324;6.862;2024-03-23T04:41:03;25.42;;;4.28;;
52866;SDS011;38739;53.324;6.862;2024-03-23T04:43:29;23.33;;;4.88;;
52866;SDS011;38739;53.324;6.862;2024-03-23T04:45:55;24.90;;;4.35;;
52866;SDS011;38739;53.324;6.862;2024-03-23T04:48:21;27.02;;;4.70;;
52866;SDS011;38739;53.324;6.862;2024-03-23T04:50:48;23.88;;;5.43;;
52866;SDS011;38739;53.324;6.862;2024-03-23T04:53:14;23.33;;;5.07;;
52866;SDS011;38739;53.324;6.862;2024-03-23T04:55:41;22.75;;;4.32;;
52866;SDS011;38739;53.324;6.862;2024-03-23T04:58:08;26.88;;;4.30;;
52866;SDS011;38739;53.324;6.862;2024-03-23T05:00:33;22.23;;;4.85;;
52866;SDS011;38739;53.324;6.862;2024-03-23T05:02:59;23.63;;;4.35;;
52866;SDS011;38739;53.324;6.862;2024-03-23T05:05:25;20.88;;;4.30;;
52866;SDS011;38739;53.324;6.862;2024-03-23T05:07:51;26.45;;;4.30;;
52866;SDS011;38739;53.324;6.862;2024-03-23T05:10:19;30.35;;;4.70;;
52866;SDS011;38739;53.324;6.862;2024-03-23T05:12:45;28.88;;;4.93;;
52866;SDS011;38739;53.324;6.862;2024-03-23T05:15:11;21.67;;;4.80;;
52866;SDS011;38739;53.324;6.862;2024-03-23T05:17:37;27.70;;;4.30;;
52866;SDS011;38739;53.324;6.862;2024-03-23T05:20:03;27.73;;;4.65;;
52866;SDS011;38739;53.324;6.862;2024-03-23T05:22:34;32.22;;;5.00;;
52866;SDS011;38739;53.324;6.862;2024-03-23T05:25:03;23.98;;;4.45;;
52866;SDS011;38739;53.324;6.862;2024-03-23T05:27:30;28.52;;;4.38;;
52866;SDS011;38739;53.324;6.862;2024-03-23T05:29:56;23.13;;;4.85;;
52866;SDS011;38739;53.324;6.862;2024-03-23T05:32:22;27.08;;;4.75;;
52866;SDS011;38739;53.324;6.862;2024-03-23T05:34:48;23.33;;;4.13;;
52866;SDS011;38739;53.324;6.862;2024-03-23T05:37:15;23.80;;;4.60;;
52866;SDS011;38739;53.324;6.862;2024-03-23T05:39:41;18.20;;;3.78;;
52866;SDS011;38739;53.324;6.862;2024-03-23T05:42:06;23.95;;;4.60;;
52866;SDS011;38739;53.324;6.862;2024-03-23T05:44:33;18.80;;;3.65;;
52866;SDS011;38739;53.324;6.862;2024-03-23T05:47:01;22.95;;;4.55;;
52866;SDS011;38739;53.324;6.862;2024-03-23T05:49:27;23.90;;;4.00;;
52866;SDS011;38739;53.324;6.862;2024-03-23T05:51:53;24.92;;;3.72;;
52866;SDS011;38739;53.324;6.862;2024-03-23T05:54:20;31.13;;;4.50;;
52866;SDS011;38739;53.324;6.862;2024-03-23T05:56:46;29.85;;;4.63;;
52866;SDS011;38739;53.324;6.862;2024-03-23T05:59:11;16.55;;;3.63;;
52866;SDS011;38739;53.324;6.862;2024-03-23T06:01:37;22.48;;;4.13;;
52866;SDS011;38739;53.324;6.862;2024-03-23T06:04:04;21.10;;;3.70;;
52866;SDS011;38739;53.324;6.862;2024-03-23T06:06:30;26.58;;;4.07;;
52866;SDS011;38739;53.324;6.862;2024-03-23T06:08:56;23.70;;;4.00;;
52866;SDS011;38739;53.324;6.862;2024-03-23T06:11:22;23.85;;;3.58;;
52866;SDS011;38739;53.324;6.862;2024-03-23T06:13:48;21.15;;;3.45;;
52866;SDS011;38739;53.324;6.862;2024-03-23T06:16:13;20.75;;;3.33;;
52866;SDS011;38739;53.324;6.862;2024-03-23T06:18:39;23.50;;;3.88;;
52866;SDS011;38739;53.324;6.862;2024-03-23T06:21:05;27.17;;;3.47;;
52866;SDS011;38739;53.324;6.862;2024-03-23T06:23:37;15.70;;;3.40;;
52866;SDS011;38739;53.324;6.862;2024-03-23T06:26:03;18.80;;;3.47;;
52866;SDS011;38739;53.324;6.862;2024-03-23T06:28:29;21.70;;;3.85;;
52866;SDS011;38739;53.324;6.862;2024-03-23T06:30:54;27.13;;;3.50;;
52866;SDS011;38739;53.324;6.862;2024-03-23T06:33:20;21.38;;;3.15;;
52866;SDS011;38739;53.324;6.862;2024-03-23T06:35:49;20.77;;;4.18;;
52866;SDS011;38739;53.324;6.862;2024-03-23T06:38:18;23.20;;;3.60;;
52866;SDS011;38739;53.324;6.862;2024-03-23T06:40:44;19.70;;;3.22;;
52866;SDS011;38739;53.324;6.862;2024-03-23T06:43:15;23.52;;;3.15;;
52866;SDS011;38739;53.324;6.862;2024-03-23T06:45:41;16.05;;;3.35;;
52866;SDS011;38739;53.324;6.862;2024-03-23T06:48:07;25.88;;;3.90;;
52866;SDS011;38739;53.324;6.862;2024-03-23T06:50:33;19.85;;;3.20;;
52866;SDS011;38739;53.324;6.862;2024-03-23T06:52:59;19.25;;;3.20;;
52866;SDS011;38739;53.324;6.862;2024-03-23T06:55:27;17.80;;;2.95;;
52866;SDS011;38739;53.324;6.862;2024-03-23T06:57:53;20.65;;;3.60;;
52866;SDS011;38739;53.324;6.862;2024-03-23T07:00:19;15.10;;;3.30;;
52866;SDS011;38739;53.324;6.862;2024-03-23T07:02:44;21.15;;;3.55;;
52866;SDS011;38739;53.324;6.862;2024-03-23T07:05:10;17.45;;;3.17;;
52866;SDS011;38739;53.324;6.862;2024-03-23T07:07:37;17.73;;;3.30;;
52866;SDS011;38739;53.324;6.862;2024-03-23T07:10:04;21.42;;;3.30;;
52866;SDS011;38739;53.324;6.862;2024-03-23T07:12:30;18.27;;;3.20;;
52866;SDS011;38739;53.324;6.862;2024-03-23T07:14:57;13.75;;;2.50;;
52866;SDS011;38739;53.324;6.862;2024-03-23T07:17:23;15.75;;;2.75;;
52866;SDS011;38739;53.324;6.862;2024-03-23T07:19:48;12.93;;;3.15;;
52866;SDS011;38739;53.324;6.862;2024-03-23T07:22:14;16.88;;;3.28;;
52866;SDS011;38739;53.324;6.862;2024-03-23T07:24:40;16.23;;;3.15;;
52866;SDS011;38739;53.324;6.862;2024-03-23T07:27:06;15.68;;;2.60;;
52866;SDS011;38739;53.324;6.862;2024-03-23T07:29:35;12.27;;;2.67;;
52866;SDS011;38739;53.324;6.862;2024-03-23T07:32:04;14.88;;;2.90;;
52866;SDS011;38739;53.324;6.862;2024-03-23T07:34:30;19.85;;;3.10;;
52866;SDS011;38739;53.324;6.862;2024-03-23T07:36:56;14.65;;;3.00;;
52866;SDS011;38739;53.324;6.862;2024-03-23T07:39:21;14.68;;;2.70;;
52866;SDS011;38739;53.324;6.862;2024-03-23T07:41:47;11.48;;;2.75;;
52866;SDS011;38739;53.324;6.862;2024-03-23T07:44:13;12.82;;;2.55;;
52866;SDS011;38739;53.324;6.862;2024-03-23T07:46:38;11.98;;;2.35;;
52866;SDS011;38739;53.324;6.862;2024-03-23T07:49:04;11.02;;;2.20;;
52866;SDS011;38739;53.324;6.862;2024-03-23T07:51:30;10.85;;;2.05;;
52866;SDS011;38739;53.324;6.862;2024-03-23T07:53:55;8.05;;;3.03;;
52866;SDS011;38739;53.324;6.862;2024-03-23T07:56:21;11.38;;;2.70;;
52866;SDS011;38739;53.324;6.862;2024-03-23T07:58:48;14.85;;;2.97;;
52866;SDS011;38739;53.324;6.862;2024-03-23T08:01:14;12.55;;;2.45;;
52866;SDS011;38739;53.324;6.862;2024-03-23T08:03:42;11.45;;;3.03;;
52866;SDS011;38739;53.324;6.862;2024-03-23T08:08:38;10.60;;;2.60;;
52866;SDS011;38739;53.324;6.862;2024-03-23T08:11:05;12.57;;;2.67;;
52866;SDS011;38739;53.324;6.862;2024-03-23T08:13:31;11.80;;;2.88;;
52866;SDS011;38739;53.324;6.862;2024-03-23T08:15:57;8.93;;;2.72;;
52866;SDS011;38739;53.324;6.862;2024-03-23T08:18:24;11.95;;;2.80;;
52866;SDS011;38739;53.324;6.862;2024-03-23T08:20:59;13.10;;;2.92;;
52866;SDS011;38739;53.324;6.862;2024-03-23T08:23:33;11.68;;;3.05;;
52866;SDS011;38739;53.324;6.862;2024-03-23T08:26:06;14.68;;;2.50;;
52866;SDS011;38739;53.324;6.862;2024-03-23T08:28:39;14.77;;;3.20;;
52866;SDS011;38739;53.324;6.862;2024-03-23T08:31:06;15.45;;;3.13;;
52866;SDS011;38739;53.324;6.862;2024-03-23T08:33:33;10.45;;;2.58;;
52866;SDS011;38739;53.324;6.862;2024-03-23T08:36:02;14.43;;;3.25;;
52866;SDS011;38739;53.324;6.862;2024-03-23T08:38:33;20.27;;;3.47;;
52866;SDS011;38739;53.324;6.862;2024-03-23T08:43:25;10.65;;;2.03;;
52866;SDS011;38739;53.324;6.862;2024-03-23T08:45:51;9.82;;;1.88;;
52866;SDS011;38739;53.324;6.862;2024-03-23T08:48:17;11.27;;;2.35;;
52866;SDS011;38739;53.324;6.862;2024-03-23T08:50:45;9.02;;;2.00;;
52866;SDS011;38739;53.324;6.862;2024-03-23T08:53:11;10.82;;;1.67;;
52866;SDS011;38739;53.324;6.862;2024-03-23T08:55:37;8.30;;;1.50;;
52866;SDS011;38739;53.324;6.862;2024-03-23T08:58:03;7.30;;;2.13;;
52866;SDS011;38739;53.324;6.862;2024-03-23T09:00:29;7.45;;;1.77;;
52866;SDS011;38739;53.324;6.862;2024-03-23T09:02:55;8.48;;;1.58;;
52866;SDS011;38739;53.324;6.862;2024-03-23T09:05:22;9.88;;;2.22;;
52866;SDS011;38739;53.324;6.862;2024-03-23T09:07:49;10.73;;;2.50;;
52866;SDS011;38739;53.324;6.862;2024-03-23T09:10:15;8.70;;;2.20;;
52866;SDS011;38739;53.324;6.862;2024-03-23T09:12:40;8.70;;;2.60;;
52866;SDS011;38739;53.324;6.862;2024-03-23T09:15:06;14.93;;;2.72;;
52866;SDS011;38739;53.324;6.862;2024-03-23T09:17:32;10.07;;;2.55;;
52866;SDS011;38739;53.324;6.862;2024-03-23T09:19:57;14.18;;;5.03;;
52866;SDS011;38739;53.324;6.862;2024-03-23T09:22:23;10.05;;;2.97;;
52866;SDS011;38739;53.324;6.862;2024-03-23T09:24:49;14.25;;;3.10;;
52866;SDS011;38739;53.324;6.862;2024-03-23T09:27:14;10.98;;;2.55;;
52866;SDS011;38739;53.324;6.862;2024-03-23T09:29:40;13.15;;;2.60;;
52866;SDS011;38739;53.324;6.862;2024-03-23T09:32:06;15.68;;;2.90;;
52866;SDS011;38739;53.324;6.862;2024-03-23T09:34:31;16.65;;;3.00;;
52866;SDS011;38739;53.324;6.862;2024-03-23T09:36:57;13.80;;;2.63;;
52866;SDS011;38739;53.324;6.862;2024-03-23T09:39:23;14.82;;;2.80;;
52866;SDS011;38739;53.324;6.862;2024-03-23T09:41:48;12.25;;;2.60;;
52866;SDS011;38739;53.324;6.862;2024-03-23T09:44:14;10.55;;;2.20;;
52866;SDS011;38739;53.324;6.862;2024-03-23T09:46:40;12.48;;;2.03;;
52866;SDS011;38739;53.324;6.862;2024-03-23T09:49:08;9.95;;;2.63;;
52866;SDS011;38739;53.324;6.862;2024-03-23T09:51:35;11.48;;;2.33;;
52866;SDS011;38739;53.324;6.862;2024-03-23T09:54:02;15.98;;;2.25;;
52866;SDS011;38739;53.324;6.862;2024-03-23T09:56:28;7.47;;;1.90;;
52866;SDS011;38739;53.324;6.862;2024-03-23T09:59:01;7.97;;;2.22;;
52866;SDS011;38739;53.324;6.862;2024-03-23T10:01:29;12.18;;;2.60;;
52866;SDS011;38739;53.324;6.862;2024-03-23T10:03:55;13.10;;;3.00;;
52866;SDS011;38739;53.324;6.862;2024-03-23T10:06:21;11.40;;;2.45;;
52866;SDS011;38739;53.324;6.862;2024-03-23T10:08:50;12.45;;;2.95;;
52866;SDS011;38739;53.324;6.862;2024-03-23T10:11:16;9.88;;;2.17;;
52866;SDS011;38739;53.324;6.862;2024-03-23T10:13:44;12.80;;;3.10;;
52866;SDS011;38739;53.324;6.862;2024-03-23T10:16:11;13.25;;;2.97;;
52866;SDS011;38739;53.324;6.862;2024-03-23T10:18:45;10.52;;;2.53;;
52866;SDS011;38739;53.324;6.862;2024-03-23T10:21:11;13.55;;;2.70;;
52866;SDS011;38739;53.324;6.862;2024-03-23T10:23:39;12.32;;;2.60;;
52866;SDS011;38739;53.324;6.862;2024-03-23T10:28:50;12.18;;;2.97;;
52866;SDS011;38739;53.324;6.862;2024-03-23T10:31:22;13.20;;;2.38;;
52866;SDS011;38739;53.324;6.862;2024-03-23T10:33:48;11.73;;;2.80;;
52866;SDS011;38739;53.324;6.862;2024-03-23T10:36:14;13.70;;;2.85;;
52866;SDS011;38739;53.324;6.862;2024-03-23T10:38:41;11.23;;;2.50;;
52866;SDS011;38739;53.324;6.862;2024-03-23T10:41:10;10.38;;;2.58;;
52866;SDS011;38739;53.324;6.862;2024-03-23T10:43:37;10.52;;;2.20;;
52866;SDS011;38739;53.324;6.862;2024-03-23T10:46:04;13.07;;;2.60;;
52866;SDS011;38739;53.324;6.862;2024-03-23T10:48:30;10.80;;;2.28;;
52866;SDS011;38739;53.324;6.862;2024-03-23T10:50:57;10.18;;;2.47;;
52866;SDS011;38739;53.324;6.862;2024-03-23T10:53:24;12.23;;;2.08;;
52866;SDS011;38739;53.324;6.862;2024-03-23T10:55:51;4.93;;;1.02;;
52866;SDS011;38739;53.324;6.862;2024-03-23T10:58:23;4.45;;;1.00;;
52866;SDS011;38739;53.324;6.862;2024-03-23T11:01:02;8.23;;;1.27;;
52866;SDS011;38739;53.324;6.862;2024-03-23T11:03:32;9.25;;;1.77;;
52866;SDS011;38739;53.324;6.862;2024-03-23T11:05:59;11.00;;;1.85;;
52866;SDS011;38739;53.324;6.862;2024-03-23T11:08:36;8.15;;;1.40;;
52866;SDS011;38739;53.324;6.862;2024-03-23T11:13:38;6.65;;;1.65;;
52866;SDS011;38739;53.324;6.862;2024-03-23T11:16:13;9.98;;;1.90;;
52866;SDS011;38739;53.324;6.862;2024-03-23T11:18:40;11.95;;;2.75;;
52866;SDS011;38739;53.324;6.862;2024-03-23T11:21:06;9.60;;;2.17;;
52866;SDS011;38739;53.324;6.862;2024-03-23T11:23:33;14.27;;;2.67;;
52866;SDS011;38739;53.324;6.862;2024-03-23T11:25:58;12.35;;;2.92;;
52866;SDS011;38739;53.324;6.862;2024-03-23T11:28:24;14.27;;;2.97;;
52866;SDS011;38739;53.324;6.862;2024-03-23T11:30:50;8.75;;;2.17;;
52866;SDS011;38739;53.324;6.862;2024-03-23T11:33:15;10.70;;;2.05;;
52866;SDS011;38739;53.324;6.862;2024-03-23T11:35:41;9.15;;;1.60;;
52866;SDS011;38739;53.324;6.862;2024-03-23T11:38:11;6.22;;;1.45;;
52866;SDS011;38739;53.324;6.862;2024-03-23T11:40:40;8.75;;;1.60;;
52866;SDS011;38739;53.324;6.862;2024-03-23T11:43:12;9.05;;;1.50;;
52866;SDS011;38739;53.324;6.862;2024-03-23T11:45:43;10.77;;;2.03;;
52866;SDS011;38739;53.324;6.862;2024-03-23T11:48:21;9.52;;;1.67;;
52866;SDS011;38739;53.324;6.862;2024-03-23T11:50:56;11.50;;;2.28;;
52866;SDS011;38739;53.324;6.862;2024-03-23T11:53:23;13.45;;;2.30;;
52866;SDS011;38739;53.324;6.862;2024-03-23T11:55:56;13.23;;;2.58;;
52866;SDS011;38739;53.324;6.862;2024-03-23T11:58:23;8.93;;;2.20;;
52866;SDS011;38739;53.324;6.862;2024-03-23T12:00:55;8.75;;;2.10;;
52866;SDS011;38739;53.324;6.862;2024-03-23T12:03:25;8.20;;;2.08;;
52866;SDS011;38739;53.324;6.862;2024-03-23T12:05:58;14.88;;;2.60;;
52866;SDS011;38739;53.324;6.862;2024-03-23T12:08:28;9.93;;;2.63;;
52866;SDS011;38739;53.324;6.862;2024-03-23T12:11:11;12.10;;;2.53;;
52866;SDS011;38739;53.324;6.862;2024-03-23T12:13:44;16.10;;;2.80;;
52866;SDS011;38739;53.324;6.862;2024-03-23T12:16:19;15.50;;;2.70;;
52866;SDS011;38739;53.324;6.862;2024-03-23T12:18:46;11.50;;;2.13;;
52866;SDS011;38739;53.324;6.862;2024-03-23T12:21:18;16.02;;;2.70;;
52866;SDS011;38739;53.324;6.862;2024-03-23T12:23:44;21.05;;;3.03;;
52866;SDS011;38739;53.324;6.862;2024-03-23T12:26:11;16.75;;;3.65;;
52866;SDS011;38739;53.324;6.862;2024-03-23T12:28:37;13.23;;;3.15;;
52866;SDS011;38739;53.324;6.862;2024-03-23T12:31:04;12.10;;;2.70;;
52866;SDS011;38739;53.324;6.862;2024-03-23T12:33:30;13.52;;;2.80;;
52866;SDS011;38739;53.324;6.862;2024-03-23T12:35:56;16.20;;;2.58;;
52866;SDS011;38739;53.324;6.862;2024-03-23T12:38:21;11.98;;;2.65;;
52866;SDS011;38739;53.324;6.862;2024-03-23T12:40:48;13.63;;;2.70;;
52866;SDS011;38739;53.324;6.862;2024-03-23T12:43:16;11.90;;;2.30;;
52866;SDS011;38739;53.324;6.862;2024-03-23T12:45:46;9.63;;;1.90;;
52866;SDS011;38739;53.324;6.862;2024-03-23T12:50:41;13.27;;;2.08;;
52866;SDS011;38739;53.324;6.862;2024-03-23T12:53:06;9.23;;;2.03;;
52866;SDS011;38739;53.324;6.862;2024-03-23T12:55:34;8.50;;;1.80;;
52866;SDS011;38739;53.324;6.862;2024-03-23T12:58:00;8.73;;;2.00;;
52866;SDS011;38739;53.324;6.862;2024-03-23T13:00:26;8.98;;;2.13;;
52866;SDS011;38739;53.324;6.862;2024-03-23T13:02:51;6.80;;;1.60;;
52866;SDS011;38739;53.324;6.862;2024-03-23T13:05:17;6.50;;;1.50;;
52866;SDS011;38739;53.324;6.862;2024-03-23T13:07:43;5.18;;;1.55;;
52866;SDS011;38739;53.324;6.862;2024-03-23T13:10:08;6.93;;;1.75;;
52866;SDS011;38739;53.324;6.862;2024-03-23T13:12:35;8.75;;;1.90;;
52866;SDS011;38739;53.324;6.862;2024-03-23T13:15:01;12.30;;;2.53;;
52866;SDS011;38739;53.324;6.862;2024-03-23T13:17:27;10.43;;;2.20;;
52866;SDS011;38739;53.324;6.862;2024-03-23T13:19:53;7.50;;;1.80;;
52866;SDS011;38739;53.324;6.862;2024-03-23T13:22:20;9.38;;;2.03;;
52866;SDS011;38739;53.324;6.862;2024-03-23T13:24:46;7.65;;;1.95;;
52866;SDS011;38739;53.324;6.862;2024-03-23T13:27:12;9.40;;;1.85;;
52866;SDS011;38739;53.324;6.862;2024-03-23T13:29:37;11.25;;;2.25;;
52866;SDS011;38739;53.324;6.862;2024-03-23T13:32:04;10.02;;;2.30;;
52866;SDS011;38739;53.324;6.862;2024-03-23T13:34:29;9.75;;;2.30;;
52866;SDS011;38739;53.324;6.862;2024-03-23T13:36:55;9.88;;;2.40;;
52866;SDS011;38739;53.324;6.862;2024-03-23T13:39:24;12.10;;;2.38;;
52866;SDS011;38739;53.324;6.862;2024-03-23T13:41:50;10.98;;;2.10;;
52866;SDS011;38739;53.324;6.862;2024-03-23T13:44:16;10.15;;;2.38;;
52866;SDS011;38739;53.324;6.862;2024-03-23T13:46:42;12.80;;;2.88;;
52866;SDS011;38739;53.324;6.862;2024-03-23T13:51:59;13.18;;;2.78;;
52866;SDS011;38739;53.324;6.862;2024-03-23T13:54:25;16.67;;;3.00;;
52866;SDS011;38739;53.324;6.862;2024-03-23T13:56:52;16.15;;;3.53;;
52866;SDS011;38739;53.324;6.862;2024-03-23T13:59:19;16.88;;;3.67;;
52866;SDS011;38739;53.324;6.862;2024-03-23T14:01:46;17.25;;;2.88;;
52866;SDS011;38739;53.324;6.862;2024-03-23T14:04:12;13.65;;;2.38;;
52866;SDS011;38739;53.324;6.862;2024-03-23T14:06:38;10.52;;;2.22;;
52866;SDS011;38739;53.324;6.862;2024-03-23T14:09:05;9.15;;;2.35;;
52866;SDS011;38739;53.324;6.862;2024-03-23T14:11:34;9.30;;;2.10;;
52866;SDS011;38739;53.324;6.862;2024-03-23T14:14:02;7.97;;;2.20;;
52866;SDS011;38739;53.324;6.862;2024-03-23T14:16:31;8.48;;;1.60;;
52866;SDS011;38739;53.324;6.862;2024-03-23T14:18:58;13.13;;;2.22;;
52866;SDS011;38739;53.324;6.862;2024-03-23T14:21:23;14.52;;;2.30;;
52866;SDS011;38739;53.324;6.862;2024-03-23T14:23:49;12.05;;;2.05;;
52866;SDS011;38739;53.324;6.862;2024-03-23T14:26:15;12.23;;;2.40;;
52866;SDS011;38739;53.324;6.862;2024-03-23T14:28:41;13.70;;;2.72;;
52866;SDS011;38739;53.324;6.862;2024-03-23T14:31:06;11.65;;;2.50;;
52866;SDS011;38739;53.324;6.862;2024-03-23T14:33:38;13.77;;;2.75;;
52866;SDS011;38739;53.324;6.862;2024-03-23T14:36:07;14.60;;;2.22;;
52866;SDS011;38739;53.324;6.862;2024-03-23T14:38:33;15.60;;;2.50;;
52866;SDS011;38739;53.324;6.862;2024-03-23T14:40:59;10.23;;;2.13;;
52866;SDS011;38739;53.324;6.862;2024-03-23T14:43:30;13.20;;;2.20;;
52866;SDS011;38739;53.324;6.862;2024-03-23T14:48:41;9.77;;;1.95;;
52866;SDS011;38739;53.324;6.862;2024-03-23T14:51:11;9.57;;;1.98;;
52866;SDS011;38739;53.324;6.862;2024-03-23T14:53:38;8.98;;;1.88;;
52866;SDS011;38739;53.324;6.862;2024-03-23T14:56:08;11.70;;;2.35;;
52866;SDS011;38739;53.324;6.862;2024-03-23T15:01:06;13.63;;;3.00;;
52866;SDS011;38739;53.324;6.862;2024-03-23T15:03:38;12.07;;;2.35;;
52866;SDS011;38739;53.324;6.862;2024-03-23T15:06:05;11.10;;;2.28;;
52866;SDS011;38739;53.324;6.862;2024-03-23T15:08:31;11.85;;;2.42;;
52866;SDS011;38739;53.324;6.862;2024-03-23T15:11:01;9.63;;;1.90;;
52866;SDS011;38739;53.324;6.862;2024-03-23T15:13:35;11.55;;;2.25;;
52866;SDS011;38739;53.324;6.862;2024-03-23T15:16:02;10.60;;;2.30;;
52866;SDS011;38739;53.324;6.862;2024-03-23T15:18:34;13.65;;;1.98;;
52866;SDS011;38739;53.324;6.862;2024-03-23T15:21:01;10.13;;;2.25;;
52866;SDS011;38739;53.324;6.862;2024-03-23T15:23:28;12.15;;;2.15;;
52866;SDS011;38739;53.324;6.862;2024-03-23T15:28:27;13.63;;;2.67;;
52866;SDS011;38739;53.324;6.862;2024-03-23T15:31:03;12.75;;;2.10;;
52866;SDS011;38739;53.324;6.862;2024-03-23T15:33:38;11.93;;;2.38;;
52866;SDS011;38739;53.324;6.862;2024-03-23T15:36:04;10.65;;;2.13;;
52866;SDS011;38739;53.324;6.862;2024-03-23T15:38:31;15.57;;;2.80;;
52866;SDS011;38739;53.324;6.862;2024-03-23T15:40:57;14.32;;;2.70;;
52866;SDS011;38739;53.324;6.862;2024-03-23T15:43:23;18.33;;;2.60;;
52866;SDS011;38739;53.324;6.862;2024-03-23T15:45:55;16.02;;;2.78;;
52866;SDS011;38739;53.324;6.862;2024-03-23T15:48:21;9.57;;;1.92;;
52866;SDS011;38739;53.324;6.862;2024-03-23T15:50:54;12.18;;;2.10;;
52866;SDS011;38739;53.324;6.862;2024-03-23T15:53:25;13.55;;;2.67;;